Time;durP1;ratioP1;P1;durP2;ratioP2;P2;SDS_P1;SDS_P2;PMS_P1;PMS_P2;Temp;Humidity;BMP_temperature;BMP_pressure;BME280_temperature;BME280_humidity;BME280_pressure;Samples;Min_cycle;Max_cycle;Signal;HPM_P1;HPM_P2
2022/10/22 00:02:26;;;;;;;4.22;2.13;;;;;19.50;100689.00;;;;5107668;28;20210;-78
2022/10/22 00:04:55;;;;;;;4.88;1.63;;;;;19.50;100680.00;;;;5097829;28;20214;-78
2022/10/22 00:07:25;;;;;;;2.75;1.70;;;;;19.50;100691.00;;;;5087052;27;20252;-78
2022/10/22 00:09:52;;;;;;;6.07;2.10;;;;;19.50;100690.00;;;;5088604;28;20225;-78
2022/10/22 00:12:20;;;;;;;2.00;1.80;;;;;19.50;100687.00;;;;5091688;28;20194;-78
2022/10/22 00:14:47;;;;;;;4.90;2.30;;;;;19.50;100688.00;;;;5095232;28;20213;-78
2022/10/22 00:17:15;;;;;;;3.15;1.77;;;;;19.50;100687.00;;;;5092159;28;20190;-78
2022/10/22 00:19:42;;;;;;;3.13;1.85;;;;;19.50;100692.00;;;;5089758;28;20198;-78
2022/10/22 00:22:10;;;;;;;2.00;1.80;;;;;19.50;100696.00;;;;5092404;28;20187;-78
2022/10/22 00:24:40;;;;;;;4.07;2.08;;;;;19.40;100700.00;;;;5098217;28;20225;-78
2022/10/22 00:27:08;;;;;;;3.63;2.03;;;;;19.50;100705.00;;;;5094428;28;20221;-78
2022/10/22 00:29:36;;;;;;;3.22;1.98;;;;;19.50;100701.00;;;;5096699;28;20206;-78
2022/10/22 00:32:04;;;;;;;4.32;2.42;;;;;19.50;100706.00;;;;5100161;28;20205;-78
2022/10/22 00:34:31;;;;;;;2.55;2.05;;;;;19.50;100711.00;;;;5094215;28;20651;-78
2022/10/22 00:36:59;;;;;;;2.10;1.90;;;;;19.50;100710.00;;;;5101688;28;20659;-79
2022/10/22 00:39:27;;;;;;;3.10;2.20;;;;;19.50;100708.00;;;;5094260;28;20209;-78
2022/10/22 00:41:57;;;;;;;3.05;2.72;;;;;19.50;100704.00;;;;5099947;28;20660;-78
2022/10/22 00:45:02;;;;;;;4.55;2.65;;;;;19.40;100709.00;;;;5089864;28;20699;-78
2022/10/22 00:47:34;;;;;;;3.35;2.30;;;;;19.50;100711.00;;;;5093817;28;20205;-78
2022/10/22 00:50:02;;;;;;;4.03;2.08;;;;;19.50;100708.00;;;;5100342;28;20694;-78
2022/10/22 00:52:30;;;;;;;5.20;2.35;;;;;19.60;100707.00;;;;5094812;28;20209;-78
2022/10/22 00:54:58;;;;;;;2.75;2.00;;;;;19.60;100707.00;;;;5092455;28;20191;-78
2022/10/22 00:57:27;;;;;;;4.53;2.33;;;;;19.60;100703.00;;;;5089087;28;20198;-78
2022/10/22 00:59:55;;;;;;;3.97;1.90;;;;;19.60;100712.00;;;;5098636;28;20277;-78
2022/10/22 01:02:23;;;;;;;5.03;2.33;;;;;19.60;100708.00;;;;5099901;28;20205;-78
2022/10/22 01:04:50;;;;;;;3.65;2.38;;;;;19.60;100711.00;;;;5090032;28;21103;-78
2022/10/22 01:07:20;;;;;;;2.67;2.03;;;;;19.60;100709.00;;;;5100753;28;20204;-78
2022/10/22 01:09:56;;;;;;;6.03;2.28;;;;;19.60;100708.00;;;;5094227;28;20198;-78
2022/10/22 01:12:33;;;;;;;4.75;2.15;;;;;19.60;100714.00;;;;5103909;28;20577;-78
2022/10/22 01:15:09;;;;;;;2.55;2.10;;;;;19.60;100712.00;;;;5095072;28;20969;-78
2022/10/22 01:17:42;;;;;;;2.45;2.00;;;;;19.60;100711.00;;;;5088354;28;20197;-78
2022/10/22 01:20:25;;;;;;;4.07;2.10;;;;;19.60;100709.00;;;;5088446;28;20198;-78
2022/10/22 01:23:02;;;;;;;3.38;2.40;;;;;19.60;100708.00;;;;5098232;28;20186;-77
2022/10/22 01:25:35;;;;;;;3.03;1.88;;;;;19.60;100699.00;;;;5094617;28;20225;-78
2022/10/22 01:28:19;;;;;;;6.38;2.35;;;;;19.60;100708.00;;;;5091910;28;20217;-78
2022/10/22 01:30:52;;;;;;;5.18;1.77;;;;;19.60;100703.00;;;;5097351;28;20206;-78
2022/10/22 01:33:21;;;;;;;5.63;2.88;;;;;19.60;100709.00;;;;5098261;28;20280;-78
2022/10/22 01:35:49;;;;;;;2.25;2.05;;;;;19.70;100717.00;;;;5099670;28;20190;-78
2022/10/22 01:38:21;;;;;;;3.70;2.08;;;;;19.60;100717.00;;;;5088507;28;20222;-78
2022/10/22 01:40:49;;;;;;;3.88;1.90;;;;;19.60;100711.00;;;;5087875;28;20190;-78
2022/10/22 01:43:16;;;;;;;2.72;2.00;;;;;19.60;100703.00;;;;5088708;28;20194;-78
2022/10/22 01:45:46;;;;;;;4.80;1.98;;;;;19.60;100703.00;;;;5092159;28;20222;-78
2022/10/22 01:48:34;;;;;;;5.38;2.38;;;;;19.50;100707.00;;;;5094488;28;20197;-78
2022/10/22 01:51:16;;;;;;;3.67;1.90;;;;;19.60;100707.00;;;;5101492;28;20197;-78
2022/10/22 01:53:52;;;;;;;4.45;2.28;;;;;19.50;100706.00;;;;5089999;28;20200;-78
2022/10/22 01:56:31;;;;;;;7.18;2.15;;;;;19.50;100707.00;;;;5088837;28;20570;-78
2022/10/22 01:59:07;;;;;;;3.13;2.10;;;;;19.50;100701.00;;;;5094699;28;20197;-78
2022/10/22 02:01:42;;;;;;;4.22;2.20;;;;;19.50;100700.00;;;;5091207;28;20202;-78
2022/10/22 02:04:17;;;;;;;5.07;2.00;;;;;19.50;100698.00;;;;5095876;28;20278;-78
2022/10/22 02:06:46;;;;;;;3.03;1.70;;;;;19.60;100698.00;;;;5089153;28;20194;-78
2022/10/22 02:09:15;;;;;;;4.75;2.30;;;;;19.50;100694.00;;;;5087625;28;20187;-78
2022/10/22 02:11:44;;;;;;;4.72;1.92;;;;;19.50;100697.00;;;;5089024;28;20198;-78
2022/10/22 02:14:13;;;;;;;4.43;2.85;;;;;19.50;100694.00;;;;5089208;28;20667;-78
2022/10/22 02:16:44;;;;;;;12.70;3.05;;;;;19.50;100694.00;;;;5093731;28;21158;-77
2022/10/22 02:19:22;;;;;;;2.25;2.05;;;;;19.40;100693.00;;;;5097403;28;20222;-78
2022/10/22 02:21:50;;;;;;;2.20;1.90;;;;;19.40;100692.00;;;;5089390;28;20193;-78
2022/10/22 02:24:17;;;;;;;6.55;2.65;;;;;19.40;100696.00;;;;5089612;28;20584;-78
2022/10/22 02:26:50;;;;;;;5.47;2.25;;;;;19.40;100689.00;;;;5108646;28;20213;-78
2022/10/22 02:29:24;;;;;;;4.38;2.17;;;;;19.40;100693.00;;;;5090398;28;20579;-78
2022/10/22 02:31:53;;;;;;;4.65;2.47;;;;;19.40;100694.00;;;;5089696;28;20186;-78
2022/10/22 02:34:24;;;;;;;4.10;2.25;;;;;19.40;100696.00;;;;5099505;28;20225;-78
2022/10/22 02:36:53;;;;;;;5.10;2.03;;;;;19.40;100699.00;;;;5077750;28;20643;-78
2022/10/22 02:39:21;;;;;;;3.00;2.20;;;;;19.40;100697.00;;;;5108324;28;20196;-78
2022/10/22 02:41:49;;;;;;;4.50;2.30;;;;;19.40;100695.00;;;;5093576;28;20194;-78
2022/10/22 02:44:20;;;;;;;3.35;2.10;;;;;19.40;100694.00;;;;5092392;28;20713;-78
2022/10/22 02:46:48;;;;;;;4.13;2.17;;;;;19.40;100697.00;;;;5102020;28;20201;-78
2022/10/22 02:49:15;;;;;;;3.70;2.55;;;;;19.30;100700.00;;;;5100613;28;20217;-78
2022/10/22 02:51:44;;;;;;;3.03;2.20;;;;;19.30;100691.00;;;;5109148;28;20194;-78
2022/10/22 02:54:11;;;;;;;2.35;1.95;;;;;19.30;100701.00;;;;5088768;28;20202;-78
2022/10/22 02:56:39;;;;;;;2.67;1.98;;;;;19.30;100707.00;;;;5087460;28;20801;-78
2022/10/22 02:59:06;;;;;;;2.90;2.30;;;;;19.30;100700.00;;;;5087425;28;20210;-78
2022/10/22 03:01:33;;;;;;;5.03;2.13;;;;;19.30;100713.00;;;;5087771;28;20284;-78
2022/10/22 03:04:01;;;;;;;3.45;2.10;;;;;19.30;100704.00;;;;5086880;28;20187;-78
2022/10/22 03:06:28;;;;;;;2.53;1.58;;;;;19.30;100706.00;;;;5103848;28;20198;-78
2022/10/22 03:08:57;;;;;;;2.55;2.20;;;;;19.30;100703.00;;;;5092809;28;20194;-78
2022/10/22 03:11:24;;;;;;;3.50;2.17;;;;;19.30;100705.00;;;;5089697;28;20198;-78
2022/10/22 03:13:51;;;;;;;4.57;2.08;;;;;19.30;100708.00;;;;5101334;28;20198;-78
2022/10/22 03:16:19;;;;;;;7.47;2.25;;;;;19.30;100712.00;;;;5094794;28;20195;-78
2022/10/22 03:18:46;;;;;;;3.80;1.88;;;;;19.30;100708.00;;;;5087688;28;20209;-78
2022/10/22 03:21:22;;;;;;;4.38;2.17;;;;;19.20;100705.00;;;;5089523;28;20205;-78
2022/10/22 03:23:49;;;;;;;6.03;2.00;;;;;19.30;100703.00;;;;5094040;28;20193;-78
2022/10/22 03:26:18;;;;;;;6.43;2.00;;;;;19.30;100710.00;;;;5104687;28;21055;-78
2022/10/22 03:28:47;;;;;;;2.58;1.75;;;;;19.30;100714.00;;;;5091917;28;20202;-78
2022/10/22 03:31:14;;;;;;;11.32;2.38;;;;;19.30;100718.00;;;;5101667;28;20206;-78
2022/10/22 03:33:41;;;;;;;2.60;2.00;;;;;19.30;100712.00;;;;5092469;28;20230;-78
2022/10/22 03:36:09;;;;;;;4.10;2.45;;;;;19.30;100709.00;;;;5096563;28;20194;-78
2022/10/22 03:38:38;;;;;;;4.20;2.22;;;;;19.30;100711.00;;;;5092181;28;20194;-78
2022/10/22 03:41:06;;;;;;;2.40;1.80;;;;;19.30;100715.00;;;;5092739;28;20206;-78
2022/10/22 03:43:37;;;;;;;3.83;2.03;;;;;19.20;100717.00;;;;5092351;28;20197;-78
2022/10/22 03:46:04;;;;;;;5.90;2.90;;;;;19.30;100713.00;;;;5099394;28;20614;-78
2022/10/22 03:48:32;;;;;;;3.60;2.05;;;;;19.20;100711.00;;;;5108123;28;20210;-79
2022/10/22 03:50:59;;;;;;;2.03;1.77;;;;;19.20;100720.00;;;;5092463;28;20195;-78
2022/10/22 03:53:26;;;;;;;3.35;2.22;;;;;19.20;100720.00;;;;5108532;28;20275;-79
2022/10/22 03:55:54;;;;;;;17.15;2.28;;;;;19.20;100729.00;;;;5096656;28;20216;-78
2022/10/22 03:58:21;;;;;;;3.13;2.22;;;;;19.20;100729.00;;;;5092724;28;20203;-78
2022/10/22 04:00:50;;;;;;;2.83;2.20;;;;;19.20;100741.00;;;;5092026;28;20222;-79
2022/10/22 04:03:17;;;;;;;3.78;2.28;;;;;19.20;100740.00;;;;5094629;28;20198;-79
2022/10/22 04:05:44;;;;;;;4.20;1.90;;;;;19.20;100742.00;;;;5101465;28;20234;-78
2022/10/22 04:08:11;;;;;;;1.80;1.58;;;;;19.20;100741.00;;;;5090523;28;20194;-78
2022/10/22 04:10:39;;;;;;;4.43;2.75;;;;;19.20;100737.00;;;;5093976;28;20908;-79
2022/10/22 04:13:07;;;;;;;3.88;1.77;;;;;19.20;100734.00;;;;5096778;28;20198;-78
2022/10/22 04:15:34;;;;;;;3.13;2.22;;;;;19.10;100739.00;;;;5092789;28;20206;-79
2022/10/22 04:18:04;;;;;;;2.95;2.03;;;;;19.10;100727.00;;;;5090850;28;21011;-78
2022/10/22 04:20:31;;;;;;;2.58;1.95;;;;;19.10;100733.00;;;;5090878;28;20194;-78
2022/10/22 04:22:58;;;;;;;6.93;2.00;;;;;19.10;100729.00;;;;5096619;28;20205;-78
2022/10/22 04:25:26;;;;;;;3.85;2.13;;;;;19.10;100738.00;;;;5097929;28;20229;-78
2022/10/22 04:27:53;;;;;;;2.97;2.25;;;;;19.10;100733.00;;;;5092811;28;20733;-78
2022/10/22 04:30:20;;;;;;;5.20;2.35;;;;;19.10;100734.00;;;;5088182;28;20190;-78
2022/10/22 04:32:47;;;;;;;3.92;1.70;;;;;19.10;100742.00;;;;5093517;28;20233;-78
2022/10/22 04:35:16;;;;;;;2.85;1.98;;;;;19.10;100744.00;;;;5103762;28;20209;-78
2022/10/22 04:37:43;;;;;;;3.25;2.00;;;;;19.10;100743.00;;;;5099307;28;20205;-78
2022/10/22 04:40:12;;;;;;;4.22;1.90;;;;;19.10;100736.00;;;;5104700;27;20197;-78
2022/10/22 04:42:39;;;;;;;2.30;1.60;;;;;19.10;100750.00;;;;5112963;27;20979;-78
2022/10/22 04:45:07;;;;;;;2.33;1.75;;;;;19.10;100746.00;;;;5108821;27;20217;-78
2022/10/22 04:47:35;;;;;;;7.53;1.85;;;;;19.10;100744.00;;;;5114738;27;20206;-79
2022/10/22 04:50:02;;;;;;;3.25;1.75;;;;;19.10;100752.00;;;;5114440;27;20193;-78
2022/10/22 04:52:31;;;;;;;4.57;1.58;;;;;19.00;100754.00;;;;5111347;27;20209;-78
2022/10/22 04:54:58;;;;;;;3.83;1.83;;;;;19.10;100749.00;;;;5113233;27;20209;-78
2022/10/22 04:57:30;;;;;;;5.78;1.88;;;;;19.00;100747.00;;;;5105691;27;20208;-78
2022/10/22 04:59:57;;;;;;;2.40;1.60;;;;;19.00;100748.00;;;;5112885;27;20217;-78
2022/10/22 05:02:24;;;;;;;2.00;1.33;;;;;19.10;100757.00;;;;5104336;27;20194;-79
2022/10/22 05:04:51;;;;;;;2.75;1.55;;;;;19.00;100760.00;;;;5118959;27;20202;-78
2022/10/22 05:07:19;;;;;;;2.80;1.95;;;;;19.10;100764.00;;;;5116312;27;20205;-78
2022/10/22 05:09:47;;;;;;;2.97;1.27;;;;;19.00;100762.00;;;;5114971;27;20209;-78
2022/10/22 05:12:15;;;;;;;3.25;1.77;;;;;19.00;100759.00;;;;5112462;27;20196;-78
2022/10/22 05:14:42;;;;;;;4.10;1.80;;;;;19.00;100762.00;;;;5113587;27;20201;-78
2022/10/22 05:17:10;;;;;;;3.92;1.95;;;;;19.00;100762.00;;;;5122196;27;20201;-79
2022/10/22 05:19:37;;;;;;;2.20;1.50;;;;;19.00;100765.00;;;;5120195;27;20188;-78
2022/10/22 05:22:05;;;;;;;4.32;2.00;;;;;19.00;100765.00;;;;5107557;27;20706;-78
2022/10/22 05:24:35;;;;;;;4.70;1.50;;;;;19.00;100763.00;;;;5106987;27;20201;-78
2022/10/22 05:27:04;;;;;;;2.95;1.58;;;;;19.00;100766.00;;;;5116962;27;20213;-78
2022/10/22 05:29:32;;;;;;;3.10;1.27;;;;;19.00;100767.00;;;;5113382;27;20647;-79
2022/10/22 05:31:59;;;;;;;4.00;1.88;;;;;19.00;100762.00;;;;5114481;27;20204;-78
2022/10/22 05:34:26;;;;;;;1.40;1.15;;;;;19.00;100762.00;;;;5112176;27;20197;-78
2022/10/22 05:36:54;;;;;;;3.60;1.88;;;;;19.00;100762.00;;;;5122555;27;20193;-78
2022/10/22 05:39:21;;;;;;;5.72;1.67;;;;;19.00;100768.00;;;;5122519;27;20198;-79
2022/10/22 05:41:48;;;;;;;1.67;1.15;;;;;19.00;100769.00;;;;5108145;27;20194;-78
2022/10/22 05:44:17;;;;;;;2.40;1.20;;;;;18.90;100772.00;;;;5111489;27;20202;-78
2022/10/22 05:46:44;;;;;;;3.22;1.88;;;;;19.00;100771.00;;;;5099423;28;20225;-78
2022/10/22 05:49:14;;;;;;;4.43;1.52;;;;;18.90;100778.00;;;;5103931;28;20198;-78
2022/10/22 05:51:41;;;;;;;1.95;1.48;;;;;19.00;100778.00;;;;5099313;28;20190;-78
2022/10/22 05:54:12;;;;;;;5.50;1.30;;;;;18.90;100781.00;;;;5094155;28;20204;-78
2022/10/22 05:56:40;;;;;;;3.25;1.52;;;;;19.00;100783.00;;;;5089072;28;20201;-78
2022/10/22 05:59:07;;;;;;;2.83;1.77;;;;;19.00;100783.00;;;;5094242;27;20818;-78
2022/10/22 06:01:36;;;;;;;4.82;1.67;;;;;18.90;100788.00;;;;5097739;28;20218;-77
2022/10/22 06:04:05;;;;;;;2.75;1.30;;;;;18.90;100788.00;;;;5096289;27;20199;-78
2022/10/22 06:06:35;;;;;;;5.50;1.25;;;;;19.00;100798.00;;;;5075877;28;20713;-77
2022/10/22 06:09:07;;;;;;;1.73;1.40;;;;;18.90;100799.00;;;;5080303;28;20191;-76
2022/10/22 06:11:34;;;;;;;3.42;1.58;;;;;19.00;100803.00;;;;5096767;28;20217;-76
2022/10/22 06:14:02;;;;;;;4.00;1.35;;;;;19.00;100806.00;;;;5093312;28;20194;-76
2022/10/22 06:16:29;;;;;;;3.67;1.30;;;;;19.00;100808.00;;;;5099431;28;20694;-77
2022/10/22 06:19:00;;;;;;;4.50;1.50;;;;;19.00;100810.00;;;;5088766;28;20202;-77
2022/10/22 06:21:28;;;;;;;3.40;1.17;;;;;19.00;100815.00;;;;5101405;27;20237;-75
2022/10/22 06:23:56;;;;;;;2.85;1.52;;;;;19.00;100815.00;;;;5092718;28;20217;-75
2022/10/22 06:26:24;;;;;;;2.53;1.48;;;;;19.00;100822.00;;;;5100441;28;20228;-75
2022/10/22 06:28:51;;;;;;;3.90;1.40;;;;;19.00;100821.00;;;;5108269;28;20204;-75
2022/10/22 06:31:18;;;;;;;2.83;1.45;;;;;19.00;100818.00;;;;5108598;28;20206;-76
2022/10/22 06:33:46;;;;;;;4.38;1.40;;;;;19.00;100827.00;;;;5108168;28;20226;-76
2022/10/22 06:36:16;;;;;;;5.05;1.60;;;;;19.00;100833.00;;;;5108193;28;20662;-76
2022/10/22 06:38:44;;;;;;;2.33;1.27;;;;;19.00;100836.00;;;;5108476;28;20196;-76
2022/10/22 06:41:12;;;;;;;1.50;1.05;;;;;19.00;100849.00;;;;5108273;28;20189;-75
2022/10/22 06:43:40;;;;;;;2.83;1.70;;;;;19.10;100854.00;;;;5108543;28;20198;-76
2022/10/22 06:46:09;;;;;;;2.42;1.10;;;;;19.10;100857.00;;;;5108321;28;20229;-75
2022/10/22 06:48:37;;;;;;;5.35;1.42;;;;;19.10;100860.00;;;;5108172;28;20559;-77
2022/10/22 06:51:07;;;;;;;2.88;1.48;;;;;19.10;100858.00;;;;5109048;28;20696;-74
2022/10/22 06:53:36;;;;;;;2.90;1.63;;;;;19.10;100867.00;;;;5107839;28;20198;-75
2022/10/22 06:56:05;;;;;;;2.53;1.38;;;;;19.10;100866.00;;;;5108553;28;20205;-74
2022/10/22 06:58:33;;;;;;;3.95;1.33;;;;;19.20;100870.00;;;;5108702;28;20204;-74
2022/10/22 07:01:04;;;;;;;3.70;1.80;;;;;19.20;100867.00;;;;5108997;28;20211;-74
2022/10/22 07:03:31;;;;;;;5.30;1.30;;;;;19.20;100867.00;;;;5108502;28;20208;-74
2022/10/22 07:06:00;;;;;;;7.07;1.33;;;;;19.20;100869.00;;;;5109058;28;20222;-75
2022/10/22 07:08:28;;;;;;;5.32;1.50;;;;;19.30;100875.00;;;;5108127;28;20223;-74
2022/10/22 07:10:57;;;;;;;5.20;1.67;;;;;19.30;100873.00;;;;5108322;28;20209;-74
2022/10/22 07:13:25;;;;;;;6.82;1.25;;;;;19.30;100880.00;;;;5099282;28;20206;-74
2022/10/22 07:15:53;;;;;;;5.53;1.42;;;;;19.40;100880.00;;;;5087868;28;20664;-74
2022/10/22 07:18:21;;;;;;;5.45;1.10;;;;;19.40;100892.00;;;;5087091;28;20259;-74
2022/10/22 07:20:49;;;;;;;3.10;1.23;;;;;19.40;100880.00;;;;5087952;28;20214;-74
2022/10/22 07:23:16;;;;;;;2.55;1.13;;;;;19.50;100885.00;;;;5087367;28;20629;-74
2022/10/22 07:25:43;;;;;;;4.68;1.98;;;;;19.50;100890.00;;;;5087252;28;20214;-75
2022/10/22 07:28:12;;;;;;;3.15;1.30;;;;;19.50;100890.00;;;;5087218;28;20597;-74
2022/10/22 07:30:40;;;;;;;3.00;1.40;;;;;19.60;100890.00;;;;5087158;28;20308;-74
2022/10/22 07:33:07;;;;;;;6.07;2.00;;;;;19.60;100907.00;;;;5086995;28;20234;-74
2022/10/22 07:35:37;;;;;;;3.80;1.50;;;;;19.60;100903.00;;;;5087711;28;20202;-75
2022/10/22 07:38:04;;;;;;;5.13;1.25;;;;;19.70;100908.00;;;;5087027;28;20225;-75
2022/10/22 07:40:32;;;;;;;3.53;1.23;;;;;19.70;100909.00;;;;5087834;28;20217;-75
2022/10/22 07:42:59;;;;;;;3.97;1.40;;;;;19.70;100914.00;;;;5087046;28;20205;-75
2022/10/22 07:45:28;;;;;;;3.25;1.35;;;;;19.80;100924.00;;;;5087027;28;20211;-75
2022/10/22 07:47:55;;;;;;;2.67;0.80;;;;;19.80;100924.00;;;;5087417;28;20218;-75
2022/10/22 07:50:22;;;;;;;6.07;1.77;;;;;19.90;100931.00;;;;5086323;28;20206;-76
2022/10/22 07:52:50;;;;;;;3.88;1.38;;;;;19.90;100936.00;;;;5087573;28;20199;-76
2022/10/22 07:55:17;;;;;;;6.38;1.50;;;;;19.90;100937.00;;;;5086815;28;20643;-75
2022/10/22 07:57:44;;;;;;;3.97;1.27;;;;;20.00;100941.00;;;;5087520;28;20667;-75
2022/10/22 08:00:12;;;;;;;2.67;1.30;;;;;20.00;100937.00;;;;5086778;28;20203;-75
2022/10/22 08:02:41;;;;;;;2.88;1.40;;;;;20.10;100948.00;;;;5087271;28;20221;-75
2022/10/22 08:05:10;;;;;;;4.38;1.20;;;;;20.10;100946.00;;;;5089029;28;20206;-75
2022/10/22 08:07:37;;;;;;;2.63;1.00;;;;;20.20;100939.00;;;;5090121;28;20222;-76
2022/10/22 08:10:05;;;;;;;4.90;1.20;;;;;20.20;100953.00;;;;5091159;28;20667;-75
2022/10/22 08:12:32;;;;;;;2.42;1.02;;;;;20.30;100951.00;;;;5090543;28;20194;-76
2022/10/22 08:15:00;;;;;;;6.28;1.20;;;;;20.30;100960.00;;;;5091517;28;20213;-75
2022/10/22 08:17:27;;;;;;;1.48;1.20;;;;;20.30;100967.00;;;;5089880;28;20663;-76
2022/10/22 08:19:56;;;;;;;7.65;1.15;;;;;20.30;100972.00;;;;5090921;28;20285;-75
2022/10/22 08:22:23;;;;;;;4.82;1.20;;;;;20.40;100969.00;;;;5089728;28;20201;-75
2022/10/22 08:24:50;;;;;;;1.73;1.02;;;;;20.40;100970.00;;;;5090638;28;20673;-75
2022/10/22 08:27:17;;;;;;;4.35;1.20;;;;;20.50;100969.00;;;;5089725;28;20229;-75
2022/10/22 08:29:45;;;;;;;4.65;1.08;;;;;20.50;100982.00;;;;5090843;28;20190;-75
2022/10/22 08:32:12;;;;;;;5.47;1.60;;;;;20.50;100984.00;;;;5089559;28;20199;-75
2022/10/22 08:34:39;;;;;;;2.15;0.77;;;;;20.60;100980.00;;;;5090793;28;20217;-75
2022/10/22 08:37:09;;;;;;;3.05;0.93;;;;;20.60;100986.00;;;;5089781;28;20198;-75
2022/10/22 08:39:36;;;;;;;4.20;1.33;;;;;20.60;100989.00;;;;5090258;28;20209;-75
2022/10/22 08:42:25;;;;;;;7.43;1.23;;;;;20.50;100997.00;;;;5090271;28;20664;-75
2022/10/22 08:45:03;;;;;;;2.75;1.00;;;;;20.60;100987.00;;;;5089546;28;20206;-75
2022/10/22 08:47:57;;;;;;;3.75;1.05;;;;;20.60;101003.00;;;;5090307;28;20233;-75
2022/10/22 08:50:30;;;;;;;5.72;1.50;;;;;20.70;101002.00;;;;5089779;28;20205;-75
2022/10/22 08:53:03;;;;;;;4.53;1.00;;;;;20.70;101003.00;;;;5090987;28;20205;-75
2022/10/22 08:55:31;;;;;;;2.08;0.85;;;;;20.80;101002.00;;;;5090405;28;20221;-75
2022/10/22 08:58:05;;;;;;;4.70;1.35;;;;;20.70;101005.00;;;;5089895;28;20202;-75
2022/10/22 09:00:37;;;;;;;6.03;1.23;;;;;20.80;101010.00;;;;5090554;28;20210;-75
2022/10/22 09:03:21;;;;;;;5.43;1.17;;;;;20.80;101024.00;;;;5090329;28;20198;-75
2022/10/22 09:05:56;;;;;;;4.03;1.30;;;;;20.80;101022.00;;;;5090338;28;20198;-75
2022/10/22 09:08:24;;;;;;;6.38;1.30;;;;;20.90;101028.00;;;;5090139;28;20251;-75
2022/10/22 09:10:56;;;;;;;15.52;1.30;;;;;20.90;101029.00;;;;5090764;28;20558;-74
2022/10/22 09:13:24;;;;;;;8.55;1.27;;;;;20.90;101027.00;;;;5089228;28;20738;-75
2022/10/22 09:15:55;;;;;;;4.90;1.25;;;;;20.90;101031.00;;;;5089132;28;20202;-75
2022/10/22 09:18:36;;;;;;;2.40;0.88;;;;;20.90;101027.00;;;;5089093;28;20201;-74
2022/10/22 09:21:14;;;;;;;5.03;1.30;;;;;21.00;101036.00;;;;5089671;28;20236;-75
2022/10/22 09:24:04;;;;;;;3.08;0.85;;;;;21.00;101043.00;;;;5089651;28;20501;-75
2022/10/22 09:26:35;;;;;;;4.60;1.00;;;;;21.10;101039.00;;;;5089153;28;20249;-75
2022/10/22 09:29:02;;;;;;;3.95;0.80;;;;;21.20;101042.00;;;;5089459;28;20199;-75
2022/10/22 09:31:32;;;;;;;4.15;1.02;;;;;21.20;101045.00;;;;5088969;28;20210;-75
2022/10/22 09:34:04;;;;;;;5.28;1.42;;;;;21.20;101050.00;;;;5089349;28;20229;-75
2022/10/22 09:36:33;;;;;;;4.35;0.95;;;;;21.30;101057.00;;;;5088987;28;20230;-75
2022/10/22 09:39:02;;;;;;;4.78;1.38;;;;;21.30;101054.00;;;;5088813;28;20202;-75
2022/10/22 09:41:30;;;;;;;2.67;0.98;;;;;21.40;101061.00;;;;5089227;28;20202;-75
2022/10/22 09:43:58;;;;;;;4.22;1.30;;;;;21.50;101055.00;;;;5089191;28;20199;-75
2022/10/22 09:46:29;;;;;;;4.35;0.93;;;;;21.50;101066.00;;;;5088234;28;20206;-75
2022/10/22 09:49:04;;;;;;;4.03;0.88;;;;;21.50;101065.00;;;;5088711;28;20826;-75
2022/10/22 09:51:48;;;;;;;4.63;0.95;;;;;21.50;101073.00;;;;5088791;28;20205;-75
2022/10/22 09:54:18;;;;;;;5.40;1.13;;;;;21.60;101068.00;;;;5088491;28;20690;-75
2022/10/22 09:56:56;;;;;;;4.47;1.27;;;;;21.70;101072.00;;;;5088587;28;20210;-74
2022/10/22 09:59:31;;;;;;;3.30;1.40;;;;;21.70;101083.00;;;;5088944;28;20292;-75
2022/10/22 10:02:10;;;;;;;7.05;1.20;;;;;21.70;101076.00;;;;5088302;28;20194;-74
2022/10/22 10:04:46;;;;;;;3.42;1.00;;;;;21.80;101079.00;;;;5088628;28;20202;-75
2022/10/22 10:07:17;;;;;;;2.50;0.85;;;;;21.80;101082.00;;;;5088297;28;20232;-75
2022/10/22 10:09:47;;;;;;;6.60;1.33;;;;;22.00;101090.00;;;;5087866;28;20198;-75
2022/10/22 10:12:24;;;;;;;2.22;1.20;;;;;22.00;101091.00;;;;5089816;28;20202;-75
2022/10/22 10:15:01;;;;;;;5.78;1.35;;;;;22.20;101091.00;;;;5105190;28;20204;-75
2022/10/22 10:17:38;;;;;;;4.43;1.45;;;;;22.30;101089.00;;;;5108333;28;20197;-76
2022/10/22 10:20:21;;;;;;;4.22;1.20;;;;;22.30;101093.00;;;;5108703;28;20232;-75
2022/10/22 10:22:57;;;;;;;4.03;0.90;;;;;22.50;101103.00;;;;5108470;28;20757;-75
2022/10/22 10:25:44;;;;;;;3.45;1.23;;;;;22.60;101110.00;;;;5107617;28;20197;-75
2022/10/22 10:28:21;;;;;;;3.70;1.40;;;;;22.70;101118.00;;;;5107219;28;20237;-76
2022/10/22 10:30:57;;;;;;;2.17;1.05;;;;;22.80;101119.00;;;;5108554;28;20193;-75
2022/10/22 10:33:33;;;;;;;3.80;1.23;;;;;22.90;101117.00;;;;5107869;28;20233;-75
2022/10/22 10:36:08;;;;;;;6.03;1.10;;;;;23.00;101122.00;;;;5108464;28;20197;-75
2022/10/22 10:38:46;;;;;;;5.88;1.30;;;;;23.10;101122.00;;;;5107824;28;20677;-76
2022/10/22 10:41:28;;;;;;;4.10;0.88;;;;;23.10;101125.00;;;;5107911;28;20185;-76
2022/10/22 10:44:16;;;;;;;2.33;0.70;;;;;23.20;101131.00;;;;5108402;28;20202;-75
2022/10/22 10:46:53;;;;;;;2.00;0.85;;;;;23.30;101127.00;;;;5107982;28;20551;-75
2022/10/22 10:49:25;;;;;;;8.93;1.15;;;;;23.50;101129.00;;;;5107942;28;20197;-76
2022/10/22 10:51:58;;;;;;;7.70;1.38;;;;;23.50;101136.00;;;;5107618;28;20201;-76
2022/10/22 10:54:38;;;;;;;6.72;1.30;;;;;23.50;101133.00;;;;5108566;28;20327;-75
2022/10/22 10:57:16;;;;;;;5.05;1.05;;;;;23.50;101138.00;;;;5108211;28;20227;-75
2022/10/22 10:59:57;;;;;;;4.25;1.35;;;;;23.60;101127.00;;;;5108300;28;20213;-76
2022/10/22 11:03:00;;;;;;;3.85;0.85;;;;;23.50;101139.00;;;;5108043;28;20585;-76
2022/10/22 11:05:39;;;;;;;4.70;0.95;;;;;23.60;101134.00;;;;5107932;28;20669;-75
2022/10/22 11:08:13;;;;;;;5.25;1.00;;;;;23.60;101147.00;;;;5108339;28;20236;-75
2022/10/22 11:10:45;;;;;;;3.90;0.93;;;;;23.70;101141.00;;;;5107734;28;20208;-76
2022/10/22 11:13:21;;;;;;;3.97;0.77;;;;;23.70;101150.00;;;;5108200;28;20566;-76
2022/10/22 11:15:55;;;;;;;6.28;1.45;;;;;23.80;101143.00;;;;5108340;28;20227;-75
2022/10/22 11:18:28;;;;;;;5.45;1.48;;;;;23.80;101151.00;;;;5107500;28;20201;-75
2022/10/22 11:21:16;;;;;;;5.75;1.40;;;;;23.80;101161.00;;;;5108365;28;20198;-75
2022/10/22 11:23:48;;;;;;;6.20;0.95;;;;;23.90;101164.00;;;;5107626;28;20189;-77
2022/10/22 11:26:22;;;;;;;5.80;1.60;;;;;23.80;101169.00;;;;5107984;28;20193;-75
2022/10/22 11:28:53;;;;;;;2.47;0.77;;;;;23.80;101164.00;;;;5107648;28;20229;-75
2022/10/22 11:31:24;;;;;;;4.80;0.65;;;;;23.80;101165.00;;;;5107286;28;20194;-75
2022/10/22 11:33:54;;;;;;;6.18;0.70;;;;;23.70;101174.00;;;;5107798;28;20229;-75
2022/10/22 11:36:24;;;;;;;4.15;1.17;;;;;23.70;101157.00;;;;5107687;28;20217;-75
2022/10/22 11:38:52;;;;;;;2.78;0.70;;;;;23.70;101166.00;;;;5107472;28;20574;-75
2022/10/22 11:41:23;;;;;;;4.82;0.95;;;;;23.70;101159.00;;;;5111713;28;20570;-75
2022/10/22 11:44:08;;;;;;;4.45;1.08;;;;;23.60;101166.00;;;;5111914;28;20201;-75
2022/10/22 11:46:43;;;;;;;3.38;0.60;;;;;23.60;101162.00;;;;5111951;28;20305;-76
2022/10/22 11:49:22;;;;;;;3.92;0.70;;;;;23.50;101161.00;;;;5111086;28;20201;-75
2022/10/22 11:51:50;;;;;;;4.30;1.08;;;;;23.60;101163.00;;;;5111999;28;20194;-75
2022/10/22 11:54:31;;;;;;;4.40;1.02;;;;;23.50;101170.00;;;;5111040;28;20224;-76
2022/10/22 11:57:18;;;;;;;3.53;1.00;;;;;23.50;101172.00;;;;5111587;28;20205;-76
2022/10/22 11:59:50;;;;;;;5.47;0.85;;;;;23.60;101167.00;;;;5111648;28;20202;-75
2022/10/22 12:02:31;;;;;;;3.95;0.77;;;;;23.60;101167.00;;;;5110745;28;20204;-75
2022/10/22 12:05:43;;;;;;;3.35;1.05;;;;;23.60;101173.00;;;;5111681;28;20258;-75
2022/10/22 12:08:25;;;;;;;5.10;0.88;;;;;23.50;101174.00;;;;5111456;28;20224;-76
2022/10/22 12:11:11;;;;;;;5.43;0.80;;;;;23.50;101173.00;;;;5110904;28;20198;-77
2022/10/22 12:14:03;;;;;;;1.58;0.55;;;;;23.50;101178.00;;;;5111635;28;20208;-77
2022/10/22 12:16:38;;;;;;;6.00;1.00;;;;;23.50;101174.00;;;;5110937;28;20206;-76
2022/10/22 12:19:13;;;;;;;5.15;1.30;;;;;23.60;101172.00;;;;5111215;28;20201;-77
2022/10/22 12:21:42;;;;;;;3.55;0.90;;;;;23.60;101178.00;;;;5110761;28;20620;-75
2022/10/22 12:24:15;;;;;;;4.30;1.20;;;;;23.50;101176.00;;;;5110720;28;20202;-75
2022/10/22 12:26:42;;;;;;;3.97;1.05;;;;;23.60;101179.00;;;;5111401;28;20205;-75
2022/10/22 12:29:13;;;;;;;5.38;1.00;;;;;23.60;101185.00;;;;5110382;28;20225;-76